Time;durP1;ratioP1;P1;durP2;ratioP2;P2;SDS_P1;SDS_P2;PMS_P1;PMS_P2;Temp;Humidity;BMP_temperature;BMP_pressure;BME280_temperature;BME280_humidity;BME280_pressure;Samples;Min_cycle;Max_cycle;Signal;HPM_P1;HPM_P2
2024/01/02 00:01:39;;;;;;;10.57;3.87;;;;;;;5.91;100.00;100422.44;6205499;28;20975;-70
2024/01/02 00:05:01;;;;;;;4.20;3.20;;;;;;;5.92;100.00;100416.13;6208941;28;20850;-69
2024/01/02 00:08:22;;;;;;;10.70;4.13;;;;;;;5.89;100.00;100403.84;6212521;28;20241;-70
2024/01/02 00:11:43;;;;;;;5.37;4.33;;;;;;;5.89;100.00;100406.50;6202486;28;20316;-70
2024/01/02 00:15:05;;;;;;;14.40;4.27;;;;;;;5.84;100.00;100397.97;6210135;28;20666;-69
2024/01/02 00:18:27;;;;;;;10.07;5.33;;;;;;;5.75;100.00;100390.66;6206160;28;20501;-69
2024/01/02 00:21:48;;;;;;;13.33;5.30;;;;;;;5.79;100.00;100392.13;6239070;28;20237;-69
2024/01/02 00:25:09;;;;;;;8.67;4.90;;;;;;;5.79;100.00;100386.75;6209823;28;20230;-69
2024/01/02 00:28:30;;;;;;;12.10;6.00;;;;;;;5.76;100.00;100375.47;6208785;28;20806;-70
2024/01/02 00:31:51;;;;;;;6.77;5.33;;;;;;;5.82;100.00;100383.84;6209156;28;20233;-68
2024/01/02 00:35:13;;;;;;;6.87;4.07;;;;;;;5.85;100.00;100374.75;6208783;28;20233;-70
2024/01/02 00:38:34;;;;;;;9.67;5.27;;;;;;;5.79;100.00;100364.50;6209915;28;20240;-69
2024/01/02 00:41:55;;;;;;;6.40;3.93;;;;;;;5.80;100.00;100368.91;6207122;28;20225;-70
2024/01/02 00:45:16;;;;;;;8.87;4.20;;;;;;;5.73;100.00;100368.53;6210656;28;20503;-69
2024/01/02 00:48:37;;;;;;;5.77;4.33;;;;;;;5.76;100.00;100362.09;6210845;28;20509;-69
2024/01/02 00:52:00;;;;;;;7.73;4.07;;;;;;;5.69;100.00;100369.72;6209889;28;20618;-69
2024/01/02 00:55:21;;;;;;;8.10;4.30;;;;;;;5.83;100.00;100358.81;6211694;28;26647;-69
2024/01/02 00:58:42;;;;;;;5.73;4.23;;;;;;;5.78;100.00;100358.31;6208311;28;20300;-69
2024/01/02 01:02:05;;;;;;;11.60;4.30;;;;;;;5.64;100.00;100361.19;6205708;28;20312;-69
2024/01/02 01:05:26;;;;;;;11.57;5.03;;;;;;;5.55;100.00;100362.75;6210225;28;20225;-70
2024/01/02 01:08:48;;;;;;;7.27;3.97;;;;;;;5.68;100.00;100359.97;6206592;28;20237;-69
2024/01/02 01:12:10;;;;;;;7.77;4.17;;;;;;;5.61;100.00;100359.59;6209041;28;20236;-69
2024/01/02 01:15:30;;;;;;;9.33;4.40;;;;;;;5.74;100.00;100353.34;6210091;28;20271;-70
2024/01/02 01:18:51;;;;;;;6.17;4.37;;;;;;;5.41;100.00;100356.75;6208946;28;20233;-69
2024/01/02 01:22:12;;;;;;;8.63;5.33;;;;;;;5.31;100.00;100353.94;6202135;28;20673;-69
2024/01/02 01:25:35;;;;;;;11.07;3.97;;;;;;;5.29;100.00;100350.53;6210316;28;20305;-69
2024/01/02 01:28:56;;;;;;;11.17;4.67;;;;;;;5.23;100.00;100339.44;6211277;28;20261;-69
2024/01/02 01:32:17;;;;;;;8.30;3.43;;;;;;;5.25;100.00;100343.72;6206546;28;20228;-70
2024/01/02 01:35:38;;;;;;;14.77;5.67;;;;;;;5.33;100.00;100337.78;6210433;28;20312;-70
2024/01/02 01:38:59;;;;;;;8.00;4.23;;;;;;;5.22;100.00;100343.94;6206687;28;20233;-69
2024/01/02 01:42:21;;;;;;;14.77;5.33;;;;;;;5.12;100.00;100344.72;6201439;28;20229;-70
2024/01/02 01:45:42;;;;;;;8.90;4.63;;;;;;;5.20;100.00;100336.97;6207034;28;20233;-69
2024/01/02 01:49:03;;;;;;;8.67;4.70;;;;;;;5.22;100.00;100324.38;6207108;28;20247;-69
2024/01/02 01:52:24;;;;;;;3.87;3.00;;;;;;;5.24;100.00;100325.97;6208947;28;20332;-70
2024/01/02 01:55:45;;;;;;;11.23;3.97;;;;;;;5.25;100.00;100321.47;6211801;28;20233;-70
2024/01/02 01:59:08;;;;;;;10.40;3.73;;;;;;;5.18;100.00;100312.22;6211578;28;20229;-69
2024/01/02 02:02:30;;;;;;;6.83;3.97;;;;;;;5.24;100.00;100296.56;6205744;28;20587;-69
2024/01/02 02:05:51;;;;;;;9.07;5.73;;;;;;;5.15;100.00;100296.44;6207520;28;20221;-69
2024/01/02 02:09:11;;;;;;;10.80;3.70;;;;;;;5.29;100.00;100291.75;6208495;28;21571;-69
2024/01/02 02:12:34;;;;;;;12.30;6.07;;;;;;;5.15;100.00;100291.94;6206006;28;20224;-70
2024/01/02 02:15:56;;;;;;;11.53;4.93;;;;;;;5.05;100.00;100293.59;6223055;28;20230;-70
2024/01/02 02:19:17;;;;;;;9.97;5.03;;;;;;;4.93;100.00;100293.66;6218125;28;20514;-69
2024/01/02 02:22:39;;;;;;;16.07;5.33;;;;;;;4.97;100.00;100287.97;6206925;28;20229;-70
2024/01/02 02:26:01;;;;;;;5.97;4.77;;;;;;;5.09;100.00;100278.19;6207853;28;20230;-68
2024/01/02 02:29:22;;;;;;;6.53;4.17;;;;;;;4.93;100.00;100267.81;6210698;28;20232;-69
2024/01/02 02:32:43;;;;;;;10.30;4.43;;;;;;;5.00;100.00;100257.50;6203710;28;20453;-69
2024/01/02 02:36:05;;;;;;;9.37;4.10;;;;;;;4.98;100.00;100254.09;6209772;28;20228;-69
2024/01/02 02:39:26;;;;;;;17.17;5.17;;;;;;;5.07;100.00;100248.91;6209633;28;20315;-69
2024/01/02 02:42:48;;;;;;;11.17;5.07;;;;;;;5.01;100.00;100235.16;6207170;28;20611;-69
2024/01/02 02:46:09;;;;;;;13.10;5.77;;;;;;;5.22;100.00;100229.03;6222466;28;20347;-69
2024/01/02 02:49:31;;;;;;;12.67;4.10;;;;;;;5.26;100.00;100216.28;6206979;28;20622;-70
2024/01/02 02:52:52;;;;;;;11.37;5.57;;;;;;;5.19;100.00;100207.06;6205909;28;20221;-69
2024/01/02 02:56:15;;;;;;;13.73;5.43;;;;;;;5.09;100.00;100204.22;6203969;28;20558;-69
2024/01/02 02:59:38;;;;;;;8.83;4.87;;;;;;;5.09;100.00;100193.53;6201160;28;20241;-69
2024/01/02 03:02:59;;;;;;;7.17;4.23;;;;;;;5.11;100.00;100196.13;6210066;28;20245;-70
2024/01/02 03:06:20;;;;;;;5.30;4.13;;;;;;;5.07;100.00;100186.66;6206484;28;20244;-70
2024/01/02 03:09:44;;;;;;;9.50;5.60;;;;;;;4.88;100.00;100182.69;6209714;28;20258;-68
2024/01/02 03:13:04;;;;;;;8.23;4.67;;;;;;;5.06;100.00;100175.09;6206686;28;20232;-69
2024/01/02 03:16:27;;;;;;;12.83;4.40;;;;;;;5.09;100.00;100172.19;6210520;28;20320;-69
2024/01/02 03:19:48;;;;;;;8.70;5.37;;;;;;;5.00;100.00;100172.06;6208616;28;20253;-69
2024/01/02 03:23:09;;;;;;;7.07;4.27;;;;;;;4.84;100.00;100151.00;6212086;28;20229;-69
2024/01/02 03:26:30;;;;;;;8.70;4.83;;;;;;;4.74;100.00;100156.22;6209522;28;20329;-69
2024/01/02 03:29:51;;;;;;;9.70;5.20;;;;;;;4.74;100.00;100142.88;6206514;28;20742;-70
2024/01/02 03:33:13;;;;;;;6.40;3.77;;;;;;;4.81;100.00;100136.09;6197927;28;20324;-69
2024/01/02 03:36:34;;;;;;;13.97;5.70;;;;;;;4.93;100.00;100128.94;6204927;28;20225;-69
2024/01/02 03:39:55;;;;;;;6.27;4.70;;;;;;;4.92;100.00;100115.72;6207243;28;20225;-70
2024/01/02 03:43:16;;;;;;;7.60;4.47;;;;;;;4.82;100.00;100120.91;6209440;28;20241;-70
2024/01/02 03:46:37;;;;;;;6.70;4.53;;;;;;;4.81;100.00;100105.88;6208956;28;20601;-69
2024/01/02 03:50:00;;;;;;;6.47;4.27;;;;;;;4.81;100.00;100095.19;6207040;28;20694;-69
2024/01/02 03:53:21;;;;;;;7.10;4.40;;;;;;;4.86;100.00;100091.19;6207625;28;20782;-69
2024/01/02 03:56:42;;;;;;;6.17;4.27;;;;;;;4.98;100.00;100081.38;6211165;28;20334;-69
2024/01/02 04:00:04;;;;;;;6.23;4.53;;;;;;;5.10;100.00;100076.88;6204370;28;20622;-68
2024/01/02 04:03:25;;;;;;;6.77;3.20;;;;;;;4.90;100.00;100069.59;6210032;28;20237;-70
2024/01/02 04:06:47;;;;;;;7.97;5.47;;;;;;;4.81;100.00;100064.00;6209297;28;20233;-70
2024/01/02 04:10:09;;;;;;;12.43;4.83;;;;;;;4.75;100.00;100056.47;6204440;28;20221;-69
2024/01/02 04:13:30;;;;;;;5.67;3.83;;;;;;;4.86;100.00;100042.25;6211758;28;20241;-70
2024/01/02 04:16:51;;;;;;;6.90;4.33;;;;;;;4.70;100.00;100039.97;6207771;28;20225;-70
2024/01/02 04:20:12;;;;;;;6.50;4.63;;;;;;;4.84;100.00;100038.88;6202529;28;20250;-70
2024/01/02 04:23:34;;;;;;;6.10;4.40;;;;;;;4.79;100.00;100027.72;6213427;28;20237;-69
2024/01/02 04:26:55;;;;;;;8.10;4.23;;;;;;;4.75;100.00;100010.25;6208805;28;20257;-70
2024/01/02 04:30:16;;;;;;;9.10;3.83;;;;;;;4.79;100.00;100009.88;6211549;28;20521;-70
2024/01/02 04:33:37;;;;;;;6.37;5.07;;;;;;;4.74;100.00;100005.84;6213336;28;22126;-70
2024/01/02 04:36:57;;;;;;;7.63;4.30;;;;;;;4.71;100.00;99993.59;6209132;28;20230;-70
2024/01/02 04:40:20;;;;;;;7.70;4.50;;;;;;;4.86;100.00;99984.38;6210047;28;20225;-70
2024/01/02 04:43:41;;;;;;;4.77;3.37;;;;;;;4.72;100.00;99981.09;6207273;28;20229;-69
2024/01/02 04:47:03;;;;;;;6.70;3.87;;;;;;;4.85;100.00;99968.50;6209459;28;20392;-70
2024/01/02 04:50:23;;;;;;;5.30;3.80;;;;;;;4.91;100.00;99960.00;6210647;28;20224;-70
2024/01/02 04:53:44;;;;;;;3.83;3.43;;;;;;;4.89;100.00;99961.94;6199993;28;20819;-70
2024/01/02 04:57:06;;;;;;;10.77;4.00;;;;;;;4.77;100.00;99958.44;6208061;28;20682;-70
2024/01/02 05:00:27;;;;;;;5.27;3.90;;;;;;;4.89;100.00;99951.25;6206360;28;20241;-69
2024/01/02 05:03:48;;;;;;;4.43;3.90;;;;;;;4.93;100.00;99954.50;6208934;28;20224;-69
2024/01/02 05:07:09;;;;;;;9.53;4.07;;;;;;;4.85;100.00;99949.81;6205272;28;20228;-70
2024/01/02 05:10:30;;;;;;;6.23;3.17;;;;;;;4.94;100.00;99941.06;6222952;28;20894;-69
2024/01/02 05:13:52;;;;;;;5.33;3.80;;;;;;;4.94;100.00;99937.53;6213299;28;20524;-69
2024/01/02 05:17:13;;;;;;;4.00;2.80;;;;;;;5.14;100.00;99924.25;6208401;28;20237;-70
2024/01/02 05:20:34;;;;;;;6.63;4.63;;;;;;;5.10;100.00;99900.59;6207306;28;20237;-70
2024/01/02 05:23:55;;;;;;;4.47;3.23;;;;;;;5.19;100.00;99897.19;6211712;28;20225;-70
2024/01/02 05:27:15;;;;;;;6.63;4.00;;;;;;;5.01;100.00;99893.31;6209378;28;20237;-69
2024/01/02 05:30:38;;;;;;;5.97;3.47;;;;;;;5.16;100.00;99876.03;6205319;28;20647;-69
2024/01/02 05:33:59;;;;;;;4.77;3.20;;;;;;;5.06;100.00;99867.09;6202418;28;20233;-69
2024/01/02 05:37:20;;;;;;;4.63;3.20;;;;;;;5.01;100.00;99848.78;6210211;28;20312;-69
2024/01/02 05:40:41;;;;;;;8.67;3.97;;;;;;;5.18;100.00;99855.38;6206187;28;20244;-69
2024/01/02 05:44:03;;;;;;;6.53;3.33;;;;;;;5.37;100.00;99851.06;6208349;28;20233;-69
2024/01/02 05:47:25;;;;;;;5.17;3.50;;;;;;;5.30;100.00;99844.53;6207284;28;20229;-70
2024/01/02 05:50:46;;;;;;;4.33;3.67;;;;;;;5.12;100.00;99840.72;6201541;28;20221;-70
2024/01/02 05:54:07;;;;;;;6.53;3.27;;;;;;;5.18;100.00;99839.38;6210200;28;20232;-70
2024/01/02 05:57:27;;;;;;;4.60;3.63;;;;;;;5.25;100.00;99846.75;6209039;28;20327;-70
2024/01/02 06:00:48;;;;;;;4.37;2.60;;;;;;;5.21;100.00;99839.97;6196514;28;20625;-70
2024/01/02 06:04:11;;;;;;;6.20;4.17;;;;;;;5.12;100.00;99834.53;6209388;28;21028;-69
2024/01/02 06:07:31;;;;;;;3.77;2.83;;;;;;;5.32;100.00;99826.56;6206501;28;21519;-70
2024/01/02 06:10:52;;;;;;;9.30;4.23;;;;;;;5.32;100.00;99815.03;6207293;28;20225;-70
2024/01/02 06:14:15;;;;;;;5.00;3.00;;;;;;;5.38;100.00;99815.34;6213008;28;20225;-69
2024/01/02 06:17:37;;;;;;;7.97;3.60;;;;;;;5.23;100.00;99802.44;6209711;28;20225;-70
2024/01/02 06:21:02;;;;;;;10.23;4.03;;;;;;;5.14;100.00;99795.19;6207541;28;20252;-69
2024/01/02 06:24:23;;;;;;;5.73;2.43;;;;;;;5.24;100.00;99788.09;6206633;28;20225;-70
2024/01/02 06:27:43;;;;;;;4.37;2.97;;;;;;;5.27;100.00;99778.03;6209187;28;20232;-69
2024/01/02 06:31:05;;;;;;;6.93;3.10;;;;;;;5.32;100.00;99767.78;6207990;28;20230;-70
2024/01/02 06:34:27;;;;;;;5.90;3.70;;;;;;;5.27;100.00;99758.47;6209672;28;20233;-70
2024/01/02 06:37:49;;;;;;;6.30;3.73;;;;;;;5.41;100.00;99758.13;6201896;28;20229;-69
2024/01/02 06:41:10;;;;;;;5.67;2.60;;;;;;;5.52;100.00;99766.09;6207559;28;20304;-69
2024/01/02 06:44:31;;;;;;;5.20;3.03;;;;;;;5.52;100.00;99758.06;6206367;28;20237;-70
2024/01/02 06:47:52;;;;;;;10.63;3.63;;;;;;;5.47;100.00;99746.91;6209995;28;21941;-69
2024/01/02 06:51:13;;;;;;;4.77;2.47;;;;;;;5.32;100.00;99734.88;6203001;28;20233;-70
2024/01/02 06:54:35;;;;;;;4.50;3.27;;;;;;;5.39;100.00;99741.38;6206137;28;20237;-69
2024/01/02 06:57:56;;;;;;;6.90;3.57;;;;;;;5.34;100.00;99730.25;6207840;28;20304;-70
2024/01/02 07:01:17;;;;;;;3.83;3.40;;;;;;;5.32;100.00;99729.53;6202055;28;20241;-70
2024/01/02 07:04:38;;;;;;;3.40;2.57;;;;;;;5.41;100.00;99726.06;6202816;28;20241;-69
2024/01/02 07:07:59;;;;;;;4.43;3.33;;;;;;;5.47;100.00;99720.19;6195987;28;20236;-69
2024/01/02 07:11:22;;;;;;;4.70;2.67;;;;;;;5.45;100.00;99717.66;6206499;28;20229;-69
2024/01/02 07:14:43;;;;;;;5.43;2.23;;;;;;;5.52;100.00;99707.28;6207040;28;20225;-69
2024/01/02 07:18:04;;;;;;;5.67;2.83;;;;;;;5.57;100.00;99713.06;6206873;28;20251;-70
2024/01/02 07:21:25;;;;;;;4.43;2.63;;;;;;;5.63;100.00;99697.34;6201697;28;20254;-70
2024/01/02 07:24:46;;;;;;;3.87;2.80;;;;;;;5.52;100.00;99689.44;6197450;28;20243;-70
2024/01/02 07:28:08;;;;;;;4.97;2.90;;;;;;;5.44;100.00;99696.41;6202228;28;20241;-70
2024/01/02 07:31:32;;;;;;;3.60;2.37;;;;;;;5.52;100.00;99694.78;6198377;28;20238;-70
2024/01/02 07:34:53;;;;;;;4.50;3.17;;;;;;;5.59;100.00;99684.41;6197325;28;20233;-71
2024/01/02 07:38:14;;;;;;;2.80;2.53;;;;;;;5.54;100.00;99682.13;6194541;28;20510;-70
2024/01/02 07:41:35;;;;;;;4.73;2.87;;;;;;;5.49;100.00;99675.47;6207660;28;20248;-70
2024/01/02 07:44:57;;;;;;;6.60;3.00;;;;;;;5.60;100.00;99670.03;6204986;28;20328;-71
2024/01/02 07:48:18;;;;;;;3.67;2.33;;;;;;;5.49;100.00;99662.09;6210230;28;20261;-69
2024/01/02 07:51:39;;;;;;;4.90;3.07;;;;;;;5.45;100.00;99647.31;6203104;28;20229;-70
2024/01/02 07:55:00;;;;;;;3.37;3.03;;;;;;;5.37;100.00;99650.66;6201499;28;20229;-68
2024/01/02 07:58:21;;;;;;;6.33;3.30;;;;;;;5.45;100.00;99647.31;6208687;28;20222;-69
2024/01/02 08:01:43;;;;;;;4.77;2.93;;;;;;;5.41;100.00;99649.41;6199373;28;20229;-69
2024/01/02 08:05:05;;;;;;;2.10;1.77;;;;;;;5.39;100.00;99643.38;6191139;28;20244;-70
2024/01/02 08:08:25;;;;;;;3.43;2.63;;;;;;;5.40;100.00;99641.53;6202918;28;20315;-69
2024/01/02 08:11:46;;;;;;;4.83;2.43;;;;;;;5.51;100.00;99630.75;6204259;28;20229;-70
2024/01/02 08:15:09;;;;;;;5.33;2.50;;;;;;;5.56;100.00;99623.16;6209256;28;20225;-70
2024/01/02 08:18:31;;;;;;;4.30;2.60;;;;;;;5.61;100.00;99620.97;6213418;28;20570;-70
2024/01/02 08:21:52;;;;;;;9.63;4.30;;;;;;;5.62;100.00;99609.25;6209737;28;21182;-70
2024/01/02 08:25:13;;;;;;;6.30;3.50;;;;;;;5.47;100.00;99610.63;6205921;28;20710;-70
2024/01/02 08:28:33;;;;;;;6.83;2.40;;;;;;;5.58;100.00;99610.53;6207098;28;20274;-70
2024/01/02 08:31:54;;;;;;;2.73;2.43;;;;;;;5.66;100.00;99595.50;6208736;28;20599;-70
2024/01/02 08:35:17;;;;;;;4.83;1.90;;;;;;;5.58;100.00;99590.00;6209305;28;20236;-70
2024/01/02 08:38:38;;;;;;;4.20;2.33;;;;;;;5.61;100.00;99588.88;6207804;28;20233;-70
2024/01/02 08:41:59;;;;;;;5.27;2.70;;;;;;;5.61;100.00;99581.69;6214786;28;20583;-70
2024/01/02 08:45:19;;;;;;;10.13;2.10;;;;;;;5.72;100.00;99579.88;6207325;28;20225;-70
2024/01/02 08:48:40;;;;;;;3.50;1.80;;;;;;;5.78;100.00;99564.13;6208354;28;20264;-71
2024/01/02 08:52:03;;;;;;;4.03;3.10;;;;;;;5.81;100.00;99565.69;6209023;28;20229;-70
2024/01/02 08:55:24;;;;;;;3.37;1.87;;;;;;;5.65;100.00;99572.41;6208132;28;20241;-70
2024/01/02 08:58:45;;;;;;;6.80;3.73;;;;;;;5.66;100.00;99567.91;6207415;28;20651;-70
2024/01/02 09:02:06;;;;;;;4.47;2.70;;;;;;;5.72;100.00;99556.66;6200899;28;20241;-70
2024/01/02 09:05:27;;;;;;;2.30;2.07;;;;;;;5.83;100.00;99545.84;6203248;28;20588;-70
2024/01/02 09:08:50;;;;;;;5.27;2.17;;;;;;;5.80;100.00;99521.22;6197217;28;20237;-70
2024/01/02 09:12:11;;;;;;;2.63;1.77;;;;;;;5.82;100.00;99525.44;6203358;28;20229;-70
2024/01/02 09:15:32;;;;;;;3.60;2.13;;;;;;;5.86;100.00;99524.19;6197748;28;20244;-70
2024/01/02 09:18:53;;;;;;;2.13;1.60;;;;;;;5.83;100.00;99523.59;6212887;28;20225;-70
2024/01/02 09:22:14;;;;;;;2.80;1.67;;;;;;;5.90;100.00;99524.78;6206455;28;20245;-70
2024/01/02 09:25:39;;;;;;;7.10;2.57;;;;;;;5.79;100.00;99508.84;6204809;28;20249;-71
2024/01/02 09:29:00;;;;;;;5.73;2.80;;;;;;;5.96;100.00;99517.06;6207189;28;20233;-70
2024/01/02 09:32:21;;;;;;;4.37;3.10;;;;;;;6.01;100.00;99506.75;6208485;28;20225;-70
2024/01/02 09:35:43;;;;;;;3.60;2.87;;;;;;;6.11;100.00;99502.25;6208174;28;20221;-70
2024/01/02 09:39:04;;;;;;;1.60;1.50;;;;;;;6.07;100.00;99500.00;6206634;28;20237;-70
2024/01/02 09:42:41;;;;;;;7.03;3.67;;;;;;;6.21;100.00;99497.75;6207820;28;20231;-70
2024/01/02 09:46:12;;;;;;;2.47;2.17;;;;;;;6.11;100.00;99472.00;6203828;28;20232;-70
2024/01/02 09:49:43;;;;;;;5.07;3.13;;;;;;;6.02;100.00;99480.88;6211491;28;20564;-70
2024/01/02 09:56:59;;;;;;;1.90;1.70;;;;;;;5.90;100.00;99466.81;6295229;23;20261;-70
2024/01/02 10:00:31;;;;;;;2.00;1.80;;;;;;;5.91;100.00;99451.59;6202594;28;20241;-70
2024/01/02 10:04:11;;;;;;;4.33;2.20;;;;;;;5.93;100.00;99457.63;6199511;28;20315;-70
2024/01/02 10:07:58;;;;;;;4.57;2.37;;;;;;;5.86;100.00;99448.50;6206092;28;20225;-70
2024/01/02 10:11:28;;;;;;;0.97;0.97;;;;;;;5.84;100.00;99440.59;6203009;28;20319;-70
2024/01/02 10:15:05;;;;;;;2.67;2.33;;;;;;;5.89;100.00;99445.53;6199566;28;20398;-70
2024/01/02 10:18:41;;;;;;;2.23;2.10;;;;;;;5.91;100.00;99439.06;6207011;28;20332;-69
2024/01/02 10:22:09;;;;;;;2.40;1.30;;;;;;;5.83;100.00;99433.56;6210869;28;20245;-69
2024/01/02 10:25:31;;;;;;;3.90;2.70;;;;;;;5.88;100.00;99431.34;6204932;28;20597;-70
2024/01/02 10:29:00;;;;;;;3.47;1.97;;;;;;;5.84;100.00;99421.88;6206290;28;20240;-70
2024/01/02 10:32:31;;;;;;;1.57;1.47;;;;;;;5.87;100.00;99410.91;6203387;28;20245;-70
2024/01/02 10:36:00;;;;;;;4.17;2.33;;;;;;;5.94;100.00;99403.19;6210322;28;20221;-70
2024/01/02 10:39:26;;;;;;;3.87;1.30;;;;;;;5.90;100.00;99401.78;6206259;28;21000;-70
2024/01/02 10:43:03;;;;;;;1.53;1.43;;;;;;;5.86;100.00;99406.53;6202033;28;20225;-70
2024/01/02 10:46:38;;;;;;;1.57;1.47;;;;;;;6.03;100.00;99405.81;6206531;28;20261;-70
2024/01/02 10:50:00;;;;;;;1.50;1.40;;;;;;;6.02;100.00;99398.78;6210239;28;20232;-69
2024/01/02 10:53:37;;;;;;;1.30;1.20;;;;;;;5.99;100.00;99391.03;6198979;28;20320;-69
2024/01/02 10:57:03;;;;;;;1.83;1.73;;;;;;;6.20;100.00;99380.16;6203304;28;20332;-70
2024/01/02 11:00:29;;;;;;;1.73;1.43;;;;;;;6.13;100.00;99371.84;6200093;28;20233;-70
2024/01/02 11:03:57;;;;;;;1.20;1.10;;;;;;;6.11;100.00;99376.50;6201780;28;20229;-70
2024/01/02 11:07:22;;;;;;;1.53;1.00;;;;;;;6.09;100.00;99369.66;6183223;28;20225;-70
2024/01/02 11:10:54;;;;;;;1.17;1.07;;;;;;;6.07;100.00;99361.75;6207509;28;20237;-70
2024/01/02 11:14:16;;;;;;;1.47;1.37;;;;;;;6.04;100.00;99353.19;6196142;28;20232;-70
2024/01/02 11:17:39;;;;;;;1.33;1.23;;;;;;;5.99;100.00;99355.44;6203533;28;20640;-71
2024/01/02 11:21:02;;;;;;;2.57;1.60;;;;;;;5.99;100.00;99350.94;6204556;28;20327;-70
2024/01/02 11:24:26;;;;;;;1.47;1.37;;;;;;;6.10;100.00;99352.59;6210956;28;20228;-71
2024/01/02 11:27:52;;;;;;;1.43;1.33;;;;;;;6.05;100.00;99345.00;6196806;28;20233;-70
2024/01/02 11:31:14;;;;;;;1.20;1.10;;;;;;;6.16;100.00;99350.19;6209966;28;20233;-70
2024/01/02 11:34:50;;;;;;;2.90;1.63;;;;;;;6.30;100.00;99349.69;6211635;28;20236;-70
2024/01/02 11:38:12;;;;;;;1.10;1.10;;;;;;;6.03;100.00;99351.50;6209932;28;20225;-71
2024/01/02 11:41:43;;;;;;;2.43;2.27;;;;;;;6.11;100.00;99343.59;6212347;28;20232;-71
2024/01/02 11:45:09;;;;;;;1.73;1.40;;;;;;;6.17;100.00;99334.97;6215367;28;20260;-71
2024/01/02 11:48:43;;;;;;;1.77;1.67;;;;;;;6.18;100.00;99333.97;6211101;28;20336;-71
2024/01/02 11:52:12;;;;;;;4.90;1.27;;;;;;;6.18;100.00;99317.91;6206850;28;20558;-71
2024/01/02 11:55:42;;;;;;;1.10;1.10;;;;;;;6.19;100.00;99307.09;6207563;28;20228;-71
2024/01/02 11:59:13;;;;;;;1.23;1.00;;;;;;;6.16;100.00;99294.00;6201910;28;20327;-70
2024/01/02 12:02:47;;;;;;;1.53;1.43;;;;;;;6.23;100.00;99299.59;6211668;28;20236;-70
2024/01/02 12:06:17;;;;;;;1.30;1.20;;;;;;;6.04;100.00;99295.19;6213170;28;20240;-70
2024/01/02 12:09:41;;;;;;;1.43;1.33;;;;;;;6.04;100.00;99292.50;6203399;28;20232;-69
2024/01/02 12:13:11;;;;;;;1.27;1.17;;;;;;;6.35;100.00;99290.38;6206800;28;20233;-70
2024/01/02 12:16:37;;;;;;;5.70;1.70;;;;;;;6.07;100.00;99273.47;6205292;28;20517;-69
2024/01/02 12:20:04;;;;;;;1.53;1.43;;;;;;;6.22;100.00;99277.34;6203928;28;20241;-70
2024/01/02 12:23:26;;;;;;;0.80;0.80;;;;;;;6.31;100.00;99281.81;6209875;28;20228;-70
2024/01/02 12:26:52;;;;;;;1.47;1.37;;;;;;;6.34;100.00;99261.97;6207171;28;20597;-71
2024/01/02 12:30:18;;;;;;;0.77;0.77;;;;;;;6.23;100.00;99270.19;6210870;28;20240;-70
2024/01/02 12:33:47;;;;;;;1.43;1.33;;;;;;;6.68;100.00;99252.28;6207104;28;20225;-72
2024/01/02 12:37:20;;;;;;;1.00;1.00;;;;;;;7.28;100.00;99250.66;6208079;28;20256;-72
2024/01/02 12:40:44;;;;;;;0.83;0.83;;;;;;;6.75;100.00;99250.69;6206809;28;20233;-71
2024/01/02 12:44:07;;;;;;;1.80;1.33;;;;;;;6.56;100.00;99250.84;6212704;28;20240;-70
2024/01/02 12:47:33;;;;;;;0.70;0.70;;;;;;;6.42;100.00;99248.66;6222198;28;20281;-70
2024/01/02 12:50:55;;;;;;;0.90;0.90;;;;;;;6.14;100.00;99247.84;6207576;28;20693;-71
2024/01/02 12:54:20;;;;;;;0.67;0.67;;;;;;;6.16;100.00;99235.16;6205527;28;20352;-71
2024/01/02 12:57:41;;;;;;;0.63;0.63;;;;;;;6.13;100.00;99237.28;6210233;28;20324;-71
2024/01/02 13:01:03;;;;;;;1.07;1.07;;;;;;;6.20;100.00;99239.22;6206873;28;20590;-71
2024/01/02 13:04:25;;;;;;;3.10;1.30;;;;;;;6.11;100.00;99234.72;6211371;28;20280;-71
2024/01/02 13:07:46;;;;;;;0.63;0.63;;;;;;;6.20;100.00;99241.03;6206240;28;20226;-71
2024/01/02 13:11:09;;;;;;;1.53;1.43;;;;;;;6.14;100.00;99247.84;6207037;28;20253;-70
2024/01/02 13:14:30;;;;;;;0.60;0.60;;;;;;;6.02;100.00;99229.44;6204300;28;20229;-69
2024/01/02 13:17:51;;;;;;;0.50;0.50;;;;;;;6.11;100.00;99232.06;6191147;28;20221;-70
2024/01/02 13:21:12;;;;;;;0.60;0.60;;;;;;;6.08;100.00;99227.03;6207587;28;20229;-70
2024/01/02 13:24:46;;;;;;;1.00;0.93;;;;;;;6.01;100.00;99228.59;6204702;28;20868;-70
2024/01/02 13:28:25;;;;;;;0.60;0.60;;;;;;;5.99;100.00;99233.25;6202714;28;20225;-70
2024/01/02 13:31:47;;;;;;;1.37;1.30;;;;;;;6.13;100.00;99231.94;6201502;28;20237;-70
2024/01/02 13:35:15;;;;;;;0.87;0.87;;;;;;;6.24;100.00;99232.56;6221260;28;20504;-70
2024/01/02 13:38:40;;;;;;;0.57;0.57;;;;;;;5.91;100.00;99232.31;6209803;28;20593;-70
2024/01/02 13:42:03;;;;;;;0.73;0.73;;;;;;;6.08;100.00;99234.19;6209335;28;20249;-70
2024/01/02 13:45:32;;;;;;;0.60;0.60;;;;;;;6.08;100.00;99219.00;6207783;28;22189;-71
2024/01/02 13:48:56;;;;;;;0.60;0.60;;;;;;;5.96;100.00;99224.69;6206888;28;20228;-70
2024/01/02 13:52:23;;;;;;;0.90;0.90;;;;;;;6.08;100.00;99226.19;6208484;28;20316;-70
2024/01/02 13:55:45;;;;;;;0.97;0.97;;;;;;;6.14;100.00;99218.41;6203912;28;20229;-70
2024/01/02 13:59:07;;;;;;;0.93;0.90;;;;;;;6.14;100.00;99218.41;6221294;28;20237;-70
2024/01/02 14:02:29;;;;;;;0.63;0.63;;;;;;;6.19;100.00;99209.94;6206226;28;20686;-70
2024/01/02 14:05:56;;;;;;;0.93;0.93;;;;;;;6.02;100.00;99206.22;6202636;28;20232;-70
2024/01/02 14:09:18;;;;;;;0.50;0.50;;;;;;;6.03;100.00;99205.22;6201078;28;20230;-71
2024/01/02 14:12:41;;;;;;;2.37;1.20;;;;;;;5.98;100.00;99199.50;6203555;28;20327;-69
2024/01/02 14:16:06;;;;;;;0.77;0.77;;;;;;;6.04;100.00;99192.69;6212158;28;20508;-71
2024/01/02 14:19:32;;;;;;;3.13;2.90;;;;;;;6.12;100.00;99193.63;6208889;28;20681;-70
2024/01/02 14:23:04;;;;;;;2.27;2.17;;;;;;;6.25;100.00;99191.47;6207325;28;20609;-71
2024/01/02 14:26:33;;;;;;;1.37;1.27;;;;;;;6.22;100.00;99185.53;6195418;28;22968;-70
2024/01/02 14:30:11;;;;;;;1.20;1.10;;;;;;;7.07;100.00;99162.59;6200568;28;20606;-72
2024/01/02 14:33:45;;;;;;;0.80;0.80;;;;;;;7.23;100.00;99157.38;6205361;28;20308;-72
2024/01/02 14:37:18;;;;;;;1.67;1.23;;;;;;;7.50;100.00;99128.69;6209626;28;20228;-73
2024/01/02 14:40:53;;;;;;;0.97;0.97;;;;;;;7.13;100.00;99140.53;6207041;28;20320;-71
2024/01/02 14:44:28;;;;;;;0.83;0.83;;;;;;;6.62;100.00;99140.47;6204083;28;20233;-69
2024/01/02 14:48:01;;;;;;;1.17;1.17;;;;;;;6.56;100.00;99127.69;6205291;28;20229;-70
2024/01/02 14:51:34;;;;;;;0.90;0.90;;;;;;;6.52;100.00;99115.63;6207066;28;20232;-70
2024/01/02 14:55:11;;;;;;;0.70;0.70;;;;;;;6.43;100.00;99127.22;6206769;28;20224;-69
2024/01/02 14:58:43;;;;;;;3.93;1.20;;;;;;;6.47;100.00;99131.28;6209686;28;20351;-70
2024/01/02 15:02:24;;;;;;;0.90;0.90;;;;;;;6.36;100.00;99116.28;6196617;28;20225;-70
2024/01/02 15:05:51;;;;;;;1.53;1.33;;;;;;;6.40;100.00;99106.97;6207970;28;20641;-70
2024/01/02 15:09:20;;;;;;;0.70;0.70;;;;;;;6.46;100.00;99094.81;6197975;28;20244;-70
2024/01/02 15:12:50;;;;;;;0.97;0.90;;;;;;;6.36;100.00;99091.41;6202162;28;20240;-70
2024/01/02 15:16:27;;;;;;;1.23;1.20;;;;;;;6.31;100.00;99097.19;6206038;28;20233;-70
2024/01/02 15:20:08;;;;;;;1.10;1.10;;;;;;;6.26;100.00;99087.94;6209231;28;20221;-69
2024/01/02 15:23:42;;;;;;;2.00;0.90;;;;;;;6.25;100.00;99088.94;6205863;28;20233;-70
2024/01/02 15:27:08;;;;;;;1.87;1.00;;;;;;;6.29;100.00;99087.63;6207487;28;20637;-70
2024/01/02 15:30:40;;;;;;;0.80;0.80;;;;;;;6.13;100.00;99088.31;6213940;28;20241;-69
2024/01/02 15:34:10;;;;;;;2.20;2.00;;;;;;;6.24;100.00;99084.56;6203228;28;20228;-70
2024/01/02 15:37:33;;;;;;;3.33;3.03;;;;;;;6.14;100.00;99078.44;6207916;28;20224;-70
2024/01/02 15:40:54;;;;;;;1.77;1.40;;;;;;;6.14;100.00;99083.81;6207712;28;20237;-69
2024/01/02 15:44:26;;;;;;;1.33;1.23;;;;;;;6.27;100.00;99077.09;6201982;28;20237;-70
2024/01/02 15:47:59;;;;;;;3.63;1.77;;;;;;;6.20;100.00;99070.66;6200774;28;20301;-70
2024/01/02 15:51:27;;;;;;;1.27;1.20;;;;;;;6.41;100.00;99063.16;6205459;28;20232;-72
2024/01/02 15:54:59;;;;;;;1.33;1.30;;;;;;;6.72;100.00;99071.59;6199396;28;20700;-71
2024/01/02 15:58:24;;;;;;;3.60;2.30;;;;;;;6.36;100.00;99057.41;6178503;28;20229;-70